sensor_id;sensor_type;location;lat;lon;timestamp;temperature;humidity
27016;DHT22;14557;0.000;0.000;2023-05-19T00:01:42;22.80;57.70
27016;DHT22;14557;0.000;0.000;2023-05-19T00:04:09;22.80;57.80
27016;DHT22;14557;0.000;0.000;2023-05-19T00:06:37;22.80;57.80
27016;DHT22;14557;0.000;0.000;2023-05-19T00:09:03;22.80;57.90
27016;DHT22;14557;0.000;0.000;2023-05-19T00:11:29;22.80;57.80
27016;DHT22;14557;0.000;0.000;2023-05-19T00:13:56;22.80;57.80
27016;DHT22;14557;0.000;0.000;2023-05-19T00:16:23;22.70;57.80
27016;DHT22;14557;0.000;0.000;2023-05-19T00:18:49;22.70;57.90
27016;DHT22;14557;0.000;0.000;2023-05-19T00:21:14;22.70;58.00
27016;DHT22;14557;0.000;0.000;2023-05-19T00:23:40;22.70;57.80
27016;DHT22;14557;0.000;0.000;2023-05-19T00:26:06;22.70;57.90
27016;DHT22;14557;0.000;0.000;2023-05-19T00:28:31;22.70;57.80
27016;DHT22;14557;0.000;0.000;2023-05-19T00:30:57;22.70;57.70
27016;DHT22;14557;0.000;0.000;2023-05-19T00:33:23;22.70;57.60
27016;DHT22;14557;0.000;0.000;2023-05-19T00:35:48;22.70;57.40
27016;DHT22;14557;0.000;0.000;2023-05-19T00:38:14;22.70;57.40
27016;DHT22;14557;0.000;0.000;2023-05-19T00:40:39;22.60;57.50
27016;DHT22;14557;0.000;0.000;2023-05-19T00:43:05;22.60;57.50
27016;DHT22;14557;0.000;0.000;2023-05-19T00:45:33;22.60;57.30
27016;DHT22;14557;0.000;0.000;2023-05-19T00:47:58;22.60;57.30
27016;DHT22;14557;0.000;0.000;2023-05-19T00:50:24;22.60;57.30
27016;DHT22;14557;0.000;0.000;2023-05-19T00:52:50;22.60;57.30
27016;DHT22;14557;0.000;0.000;2023-05-19T00:55:15;22.60;57.30
27016;DHT22;14557;0.000;0.000;2023-05-19T00:57:41;22.60;57.30
27016;DHT22;14557;0.000;0.000;2023-05-19T01:00:07;22.60;57.40
27016;DHT22;14557;0.000;0.000;2023-05-19T01:02:33;22.50;57.40
27016;DHT22;14557;0.000;0.000;2023-05-19T01:04:59;22.60;57.30
27016;DHT22;14557;0.000;0.000;2023-05-19T01:07:25;22.50;57.30
27016;DHT22;14557;0.000;0.000;2023-05-19T01:09:51;22.50;57.40
27016;DHT22;14557;0.000;0.000;2023-05-19T01:12:17;22.50;57.40
27016;DHT22;14557;0.000;0.000;2023-05-19T01:14:42;22.50;57.40
27016;DHT22;14557;0.000;0.000;2023-05-19T01:32:09;22.50;57.20
27016;DHT22;14557;0.000;0.000;2023-05-19T01:34:37;22.40;57.30
27016;DHT22;14557;0.000;0.000;2023-05-19T01:37:03;22.40;57.30
27016;DHT22;14557;0.000;0.000;2023-05-19T01:39:29;22.40;57.10
27016;DHT22;14557;0.000;0.000;2023-05-19T01:41:55;22.40;57.20
27016;DHT22;14557;0.000;0.000;2023-05-19T01:44:22;22.40;57.30
27016;DHT22;14557;0.000;0.000;2023-05-19T01:46:49;22.40;57.10
27016;DHT22;14557;0.000;0.000;2023-05-19T01:49:15;22.40;57.10
27016;DHT22;14557;0.000;0.000;2023-05-19T01:51:41;22.40;57.30
27016;DHT22;14557;0.000;0.000;2023-05-19T01:54:07;22.30;57.30
27016;DHT22;14557;0.000;0.000;2023-05-19T02:02:25;22.30;57.20
27016;DHT22;14557;0.000;0.000;2023-05-19T02:04:54;22.30;57.50
27016;DHT22;14557;0.000;0.000;2023-05-19T02:09:57;22.30;58.00
27016;DHT22;14557;0.000;0.000;2023-05-19T02:12:31;22.30;57.40
27016;DHT22;14557;0.000;0.000;2023-05-19T02:15:09;22.30;57.40
27016;DHT22;14557;0.000;0.000;2023-05-19T02:17:36;22.30;57.30
27016;DHT22;14557;0.000;0.000;2023-05-19T02:20:04;22.20;57.20
27016;DHT22;14557;0.000;0.000;2023-05-19T02:22:30;22.20;57.10
27016;DHT22;14557;0.000;0.000;2023-05-19T02:24:56;22.20;57.10
27016;DHT22;14557;0.000;0.000;2023-05-19T02:27:21;22.20;57.10
27016;DHT22;14557;0.000;0.000;2023-05-19T02:29:47;22.20;57.20
27016;DHT22;14557;0.000;0.000;2023-05-19T02:32:13;22.20;57.20
27016;DHT22;14557;0.000;0.000;2023-05-19T02:34:39;22.20;57.20
27016;DHT22;14557;0.000;0.000;2023-05-19T02:37:06;22.20;57.20
27016;DHT22;14557;0.000;0.000;2023-05-19T02:39:32;22.20;57.20
27016;DHT22;14557;0.000;0.000;2023-05-19T02:41:59;22.20;57.10
27016;DHT22;14557;0.000;0.000;2023-05-19T02:44:25;22.10;57.10
27016;DHT22;14557;0.000;0.000;2023-05-19T02:46:51;22.20;57.20
27016;DHT22;14557;0.000;0.000;2023-05-19T02:49:16;22.10;57.10
27016;DHT22;14557;0.000;0.000;2023-05-19T02:51:42;22.10;57.30
27016;DHT22;14557;0.000;0.000;2023-05-19T02:54:07;22.10;57.40
27016;DHT22;14557;0.000;0.000;2023-05-19T02:56:33;22.10;57.30
27016;DHT22;14557;0.000;0.000;2023-05-19T02:58:59;22.10;57.30
27016;DHT22;14557;0.000;0.000;2023-05-19T03:01:25;22.00;57.40
27016;DHT22;14557;0.000;0.000;2023-05-19T03:03:50;22.00;57.40
27016;DHT22;14557;0.000;0.000;2023-05-19T03:06:16;22.00;57.40
27016;DHT22;14557;0.000;0.000;2023-05-19T03:08:42;22.00;57.30
27016;DHT22;14557;0.000;0.000;2023-05-19T03:11:08;22.00;57.20
27016;DHT22;14557;0.000;0.000;2023-05-19T03:13:33;22.00;57.30
27016;DHT22;14557;0.000;0.000;2023-05-19T03:15:59;22.00;57.20
27016;DHT22;14557;0.000;0.000;2023-05-19T03:18:26;21.90;57.10
27016;DHT22;14557;0.000;0.000;2023-05-19T03:20:51;22.00;57.10
27016;DHT22;14557;0.000;0.000;2023-05-19T03:23:18;22.00;57.00
27016;DHT22;14557;0.000;0.000;2023-05-19T03:25:44;22.00;57.00
27016;DHT22;14557;0.000;0.000;2023-05-19T03:28:10;22.00;56.90
27016;DHT22;14557;0.000;0.000;2023-05-19T03:30:35;21.90;56.90
27016;DHT22;14557;0.000;0.000;2023-05-19T03:33:01;22.00;57.00
27016;DHT22;14557;0.000;0.000;2023-05-19T03:35:27;21.90;56.90
27016;DHT22;14557;0.000;0.000;2023-05-19T03:37:52;21.90;57.00
27016;DHT22;14557;0.000;0.000;2023-05-19T03:40:18;21.90;57.10
27016;DHT22;14557;0.000;0.000;2023-05-19T03:42:44;21.90;57.10
27016;DHT22;14557;0.000;0.000;2023-05-19T03:45:09;21.90;57.20
27016;DHT22;14557;0.000;0.000;2023-05-19T03:47:35;21.90;57.20
27016;DHT22;14557;0.000;0.000;2023-05-19T03:50:00;21.90;57.10
27016;DHT22;14557;0.000;0.000;2023-05-19T03:52:26;21.80;57.00
27016;DHT22;14557;0.000;0.000;2023-05-19T03:54:52;21.90;57.00
27016;DHT22;14557;0.000;0.000;2023-05-19T03:57:17;21.90;56.90
27016;DHT22;14557;0.000;0.000;2023-05-19T03:59:43;21.90;56.90
27016;DHT22;14557;0.000;0.000;2023-05-19T04:02:09;21.80;56.90
27016;DHT22;14557;0.000;0.000;2023-05-19T04:04:34;21.80;56.80
27016;DHT22;14557;0.000;0.000;2023-05-19T04:07:02;21.80;56.80
27016;DHT22;14557;0.000;0.000;2023-05-19T04:09:28;21.80;56.80
27016;DHT22;14557;0.000;0.000;2023-05-19T04:11:53;21.80;56.80
27016;DHT22;14557;0.000;0.000;2023-05-19T04:14:19;21.80;56.80
27016;DHT22;14557;0.000;0.000;2023-05-19T04:16:44;21.80;56.70
27016;DHT22;14557;0.000;0.000;2023-05-19T04:19:10;21.80;56.80
27016;DHT22;14557;0.000;0.000;2023-05-19T04:21:35;21.80;56.80
27016;DHT22;14557;0.000;0.000;2023-05-19T04:24:01;21.80;56.80
27016;DHT22;14557;0.000;0.000;2023-05-19T04:26:30;21.80;56.90
27016;DHT22;14557;0.000;0.000;2023-05-19T04:28:58;21.70;56.90
27016;DHT22;14557;0.000;0.000;2023-05-19T04:31:24;21.70;56.90
27016;DHT22;14557;0.000;0.000;2023-05-19T04:33:51;21.70;57.00
27016;DHT22;14557;0.000;0.000;2023-05-19T04:36:17;21.70;57.00
27016;DHT22;14557;0.000;0.000;2023-05-19T04:38:45;21.70;57.00
27016;DHT22;14557;0.000;0.000;2023-05-19T04:41:11;21.70;57.00
27016;DHT22;14557;0.000;0.000;2023-05-19T04:43:37;21.70;57.10
27016;DHT22;14557;0.000;0.000;2023-05-19T04:46:06;21.70;57.80
27016;DHT22;14557;0.000;0.000;2023-05-19T04:48:32;21.70;57.20
27016;DHT22;14557;0.000;0.000;2023-05-19T04:50:58;21.60;57.20
27016;DHT22;14557;0.000;0.000;2023-05-19T04:53:29;21.60;57.20
27016;DHT22;14557;0.000;0.000;2023-05-19T04:55:54;21.60;57.20
27016;DHT22;14557;0.000;0.000;2023-05-19T04:58:21;21.60;57.10
27016;DHT22;14557;0.000;0.000;2023-05-19T05:00:46;21.60;56.90
27016;DHT22;14557;0.000;0.000;2023-05-19T05:03:12;21.60;57.00
27016;DHT22;14557;0.000;0.000;2023-05-19T05:05:38;21.60;56.90
27016;DHT22;14557;0.000;0.000;2023-05-19T05:08:04;21.60;56.90
27016;DHT22;14557;0.000;0.000;2023-05-19T05:10:30;21.60;56.80
27016;DHT22;14557;0.000;0.000;2023-05-19T05:12:56;21.60;56.80
27016;DHT22;14557;0.000;0.000;2023-05-19T05:15:21;21.60;56.80
27016;DHT22;14557;0.000;0.000;2023-05-19T05:17:48;21.60;56.80
27016;DHT22;14557;0.000;0.000;2023-05-19T05:20:14;21.60;56.80
27016;DHT22;14557;0.000;0.000;2023-05-19T05:22:40;21.60;56.80
27016;DHT22;14557;0.000;0.000;2023-05-19T05:25:06;21.60;56.80
27016;DHT22;14557;0.000;0.000;2023-05-19T05:27:32;21.60;56.80
27016;DHT22;14557;0.000;0.000;2023-05-19T05:29:58;21.60;56.80
27016;DHT22;14557;0.000;0.000;2023-05-19T05:32:23;21.50;56.70
27016;DHT22;14557;0.000;0.000;2023-05-19T05:34:49;21.50;56.60
27016;DHT22;14557;0.000;0.000;2023-05-19T05:37:15;21.50;56.70
27016;DHT22;14557;0.000;0.000;2023-05-19T05:39:40;21.50;56.50
27016;DHT22;14557;0.000;0.000;2023-05-19T05:42:06;21.50;56.60
27016;DHT22;14557;0.000;0.000;2023-05-19T05:44:33;21.50;56.70
27016;DHT22;14557;0.000;0.000;2023-05-19T05:47:00;21.50;56.60
27016;DHT22;14557;0.000;0.000;2023-05-19T05:49:26;21.50;56.50
27016;DHT22;14557;0.000;0.000;2023-05-19T05:51:51;21.50;56.60
27016;DHT22;14557;0.000;0.000;2023-05-19T05:54:19;21.50;56.50
27016;DHT22;14557;0.000;0.000;2023-05-19T05:56:45;21.50;56.70
27016;DHT22;14557;0.000;0.000;2023-05-19T05:59:11;21.50;56.70
27016;DHT22;14557;0.000;0.000;2023-05-19T06:01:37;21.50;56.70
27016;DHT22;14557;0.000;0.000;2023-05-19T06:04:03;21.40;57.30
27016;DHT22;14557;0.000;0.000;2023-05-19T06:06:28;21.40;56.70
27016;DHT22;14557;0.000;0.000;2023-05-19T06:08:54;21.40;56.80
27016;DHT22;14557;0.000;0.000;2023-05-19T06:11:19;21.40;56.80
27016;DHT22;14557;0.000;0.000;2023-05-19T06:13:45;21.40;56.80
27016;DHT22;14557;0.000;0.000;2023-05-19T06:16:11;21.40;57.00
27016;DHT22;14557;0.000;0.000;2023-05-19T06:18:36;21.40;56.90
27016;DHT22;14557;0.000;0.000;2023-05-19T06:21:02;21.40;57.10
27016;DHT22;14557;0.000;0.000;2023-05-19T06:23:29;21.40;57.00
27016;DHT22;14557;0.000;0.000;2023-05-19T06:25:54;21.40;57.10
27016;DHT22;14557;0.000;0.000;2023-05-19T06:28:21;21.40;57.10
27016;DHT22;14557;0.000;0.000;2023-05-19T06:30:46;21.40;57.00
27016;DHT22;14557;0.000;0.000;2023-05-19T06:33:12;21.40;57.00
27016;DHT22;14557;0.000;0.000;2023-05-19T06:35:37;21.30;56.80
27016;DHT22;14557;0.000;0.000;2023-05-19T06:38:03;21.40;56.90
27016;DHT22;14557;0.000;0.000;2023-05-19T06:40:28;21.40;56.80
27016;DHT22;14557;0.000;0.000;2023-05-19T06:42:54;21.40;57.00
27016;DHT22;14557;0.000;0.000;2023-05-19T06:45:20;21.40;57.00
27016;DHT22;14557;0.000;0.000;2023-05-19T06:47:47;21.40;57.00
27016;DHT22;14557;0.000;0.000;2023-05-19T06:50:12;21.40;57.00
27016;DHT22;14557;0.000;0.000;2023-05-19T06:52:38;21.40;57.00
27016;DHT22;14557;0.000;0.000;2023-05-19T06:55:04;21.40;57.00
27016;DHT22;14557;0.000;0.000;2023-05-19T06:57:30;21.40;57.10
27016;DHT22;14557;0.000;0.000;2023-05-19T06:59:55;21.40;56.90
27016;DHT22;14557;0.000;0.000;2023-05-19T07:02:21;21.40;56.90
27016;DHT22;14557;0.000;0.000;2023-05-19T07:04:46;21.40;57.10
27016;DHT22;14557;0.000;0.000;2023-05-19T07:07:12;21.40;57.00
27016;DHT22;14557;0.000;0.000;2023-05-19T07:09:37;21.40;56.90
27016;DHT22;14557;0.000;0.000;2023-05-19T07:12:03;21.30;57.10
27016;DHT22;14557;0.000;0.000;2023-05-19T07:14:29;21.40;60.00
27016;DHT22;14557;0.000;0.000;2023-05-19T07:16:54;21.50;63.00
27016;DHT22;14557;0.000;0.000;2023-05-19T07:19:20;21.70;65.10
27016;DHT22;14557;0.000;0.000;2023-05-19T07:21:46;21.90;60.50
27016;DHT22;14557;0.000;0.000;2023-05-19T07:24:12;21.90;59.50
27016;DHT22;14557;0.000;0.000;2023-05-19T07:26:38;21.80;59.90
27016;DHT22;14557;0.000;0.000;2023-05-19T07:29:03;21.90;59.60
27016;DHT22;14557;0.000;0.000;2023-05-19T07:31:29;21.90;59.80
27016;DHT22;14557;0.000;0.000;2023-05-19T07:33:55;21.90;59.90
27016;DHT22;14557;0.000;0.000;2023-05-19T07:36:21;21.90;59.60
27016;DHT22;14557;0.000;0.000;2023-05-19T07:38:46;21.90;59.70
27016;DHT22;14557;0.000;0.000;2023-05-19T07:41:12;21.90;59.50
27016;DHT22;14557;0.000;0.000;2023-05-19T07:43:38;21.80;59.40
27016;DHT22;14557;0.000;0.000;2023-05-19T07:46:04;21.80;58.90
27016;DHT22;14557;0.000;0.000;2023-05-19T07:48:30;21.80;58.80
27016;DHT22;14557;0.000;0.000;2023-05-19T07:50:55;21.80;58.50
27016;DHT22;14557;0.000;0.000;2023-05-19T07:53:21;21.80;58.30
27016;DHT22;14557;0.000;0.000;2023-05-19T07:55:47;21.70;58.20
27016;DHT22;14557;0.000;0.000;2023-05-19T07:58:12;21.80;58.10
27016;DHT22;14557;0.000;0.000;2023-05-19T08:00:38;21.80;58.00
27016;DHT22;14557;0.000;0.000;2023-05-19T08:03:05;21.80;58.00
27016;DHT22;14557;0.000;0.000;2023-05-19T08:05:32;21.80;57.90
27016;DHT22;14557;0.000;0.000;2023-05-19T08:07:58;21.80;57.80
27016;DHT22;14557;0.000;0.000;2023-05-19T08:10:23;21.80;57.70
27016;DHT22;14557;0.000;0.000;2023-05-19T08:12:49;21.80;57.70
27016;DHT22;14557;0.000;0.000;2023-05-19T08:15:15;21.80;58.20
27016;DHT22;14557;0.000;0.000;2023-05-19T08:17:40;21.80;65.00
27016;DHT22;14557;0.000;0.000;2023-05-19T08:20:06;21.80;61.40
27016;DHT22;14557;0.000;0.000;2023-05-19T08:22:34;21.90;60.80
27016;DHT22;14557;0.000;0.000;2023-05-19T08:25:00;21.80;59.40
27016;DHT22;14557;0.000;0.000;2023-05-19T08:27:25;21.80;58.70
27016;DHT22;14557;0.000;0.000;2023-05-19T08:29:51;21.80;59.20
27016;DHT22;14557;0.000;0.000;2023-05-19T08:32:16;21.90;58.60
27016;DHT22;14557;0.000;0.000;2023-05-19T08:34:42;21.90;58.40
27016;DHT22;14557;0.000;0.000;2023-05-19T08:37:08;21.90;58.00
27016;DHT22;14557;0.000;0.000;2023-05-19T08:39:33;22.00;57.70
27016;DHT22;14557;0.000;0.000;2023-05-19T08:41:59;22.10;57.40
27016;DHT22;14557;0.000;0.000;2023-05-19T08:44:25;22.10;57.60
27016;DHT22;14557;0.000;0.000;2023-05-19T08:46:53;22.10;57.60
27016;DHT22;14557;0.000;0.000;2023-05-19T08:49:21;22.10;56.90
27016;DHT22;14557;0.000;0.000;2023-05-19T08:51:54;22.10;56.60
27016;DHT22;14557;0.000;0.000;2023-05-19T08:54:24;22.20;56.50
27016;DHT22;14557;0.000;0.000;2023-05-19T08:56:49;22.20;56.20
27016;DHT22;14557;0.000;0.000;2023-05-19T08:59:15;22.20;55.80
27016;DHT22;14557;0.000;0.000;2023-05-19T09:01:42;22.30;55.50
27016;DHT22;14557;0.000;0.000;2023-05-19T09:04:08;22.30;56.20
27016;DHT22;14557;0.000;0.000;2023-05-19T09:06:34;22.30;55.50
27016;DHT22;14557;0.000;0.000;2023-05-19T09:08:59;22.30;56.40
27016;DHT22;14557;0.000;0.000;2023-05-19T09:11:25;22.30;56.20
27016;DHT22;14557;0.000;0.000;2023-05-19T09:13:51;22.40;55.90
27016;DHT22;14557;0.000;0.000;2023-05-19T09:16:18;22.40;55.40
27016;DHT22;14557;0.000;0.000;2023-05-19T09:18:56;22.40;55.20
27016;DHT22;14557;0.000;0.000;2023-05-19T09:21:31;22.40;55.10
27016;DHT22;14557;0.000;0.000;2023-05-19T09:24:03;22.40;55.30
27016;DHT22;14557;0.000;0.000;2023-05-19T09:26:40;22.30;55.00
27016;DHT22;14557;0.000;0.000;2023-05-19T09:29:12;22.30;54.80
27016;DHT22;14557;0.000;0.000;2023-05-19T09:31:38;22.30;54.80
27016;DHT22;14557;0.000;0.000;2023-05-19T09:34:10;22.30;54.80
27016;DHT22;14557;0.000;0.000;2023-05-19T09:36:37;22.30;54.90
27016;DHT22;14557;0.000;0.000;2023-05-19T09:39:11;22.30;54.90
27016;DHT22;14557;0.000;0.000;2023-05-19T09:41:36;22.30;54.70
27016;DHT22;14557;0.000;0.000;2023-05-19T09:44:02;22.30;54.60
27016;DHT22;14557;0.000;0.000;2023-05-19T09:46:27;22.30;54.50
27016;DHT22;14557;0.000;0.000;2023-05-19T09:48:57;22.30;54.40
27016;DHT22;14557;0.000;0.000;2023-05-19T09:51:23;22.30;54.30
27016;DHT22;14557;0.000;0.000;2023-05-19T09:53:49;22.30;54.40
27016;DHT22;14557;0.000;0.000;2023-05-19T09:56:14;22.30;54.50
27016;DHT22;14557;0.000;0.000;2023-05-19T09:58:40;22.30;54.40
27016;DHT22;14557;0.000;0.000;2023-05-19T10:01:06;22.30;54.40
27016;DHT22;14557;0.000;0.000;2023-05-19T10:03:32;22.30;54.30
27016;DHT22;14557;0.000;0.000;2023-05-19T10:05:59;22.30;54.20
27016;DHT22;14557;0.000;0.000;2023-05-19T10:08:25;22.20;54.10
27016;DHT22;14557;0.000;0.000;2023-05-19T10:10:51;22.30;54.10
27016;DHT22;14557;0.000;0.000;2023-05-19T10:13:17;22.30;54.10
27016;DHT22;14557;0.000;0.000;2023-05-19T10:15:43;22.30;53.90
27016;DHT22;14557;0.000;0.000;2023-05-19T10:18:11;22.40;54.00
27016;DHT22;14557;0.000;0.000;2023-05-19T10:20:36;22.40;54.00
27016;DHT22;14557;0.000;0.000;2023-05-19T10:23:02;22.40;54.10
27016;DHT22;14557;0.000;0.000;2023-05-19T10:25:31;22.40;54.10
27016;DHT22;14557;0.000;0.000;2023-05-19T10:28:04;22.40;54.20
27016;DHT22;14557;0.000;0.000;2023-05-19T10:30:33;22.40;54.00
27016;DHT22;14557;0.000;0.000;2023-05-19T10:33:00;22.40;53.90
27016;DHT22;14557;0.000;0.000;2023-05-19T10:37:55;22.50;53.80
27016;DHT22;14557;0.000;0.000;2023-05-19T10:40:26;22.50;53.80
27016;DHT22;14557;0.000;0.000;2023-05-19T10:42:56;22.60;53.80
27016;DHT22;14557;0.000;0.000;2023-05-19T10:45:26;22.60;53.90
27016;DHT22;14557;0.000;0.000;2023-05-19T10:47:54;22.60;53.90
27016;DHT22;14557;0.000;0.000;2023-05-19T10:50:20;22.60;53.90
27016;DHT22;14557;0.000;0.000;2023-05-19T10:52:51;22.60;53.90
27016;DHT22;14557;0.000;0.000;2023-05-19T10:55:17;22.60;53.90
27016;DHT22;14557;0.000;0.000;2023-05-19T10:58:02;22.60;54.00
27016;DHT22;14557;0.000;0.000;2023-05-19T11:00:28;22.60;54.00
27016;DHT22;14557;0.000;0.000;2023-05-19T11:03:14;22.60;53.90
27016;DHT22;14557;0.000;0.000;2023-05-19T11:05:39;22.60;53.90
27016;DHT22;14557;0.000;0.000;2023-05-19T11:08:05;22.70;53.90
27016;DHT22;14557;0.000;0.000;2023-05-19T11:10:35;22.70;54.00
27016;DHT22;14557;0.000;0.000;2023-05-19T11:13:01;22.70;54.00
27016;DHT22;14557;0.000;0.000;2023-05-19T11:15:28;22.70;54.00
27016;DHT22;14557;0.000;0.000;2023-05-19T11:17:53;22.70;54.10
27016;DHT22;14557;0.000;0.000;2023-05-19T11:20:23;22.60;54.00
27016;DHT22;14557;0.000;0.000;2023-05-19T11:25:42;22.70;54.10
27016;DHT22;14557;0.000;0.000;2023-05-19T11:28:11;22.70;54.30
27016;DHT22;14557;0.000;0.000;2023-05-19T11:30:38;22.70;54.20
27016;DHT22;14557;0.000;0.000;2023-05-19T11:33:05;22.70;54.10
27016;DHT22;14557;0.000;0.000;2023-05-19T11:35:31;22.80;54.00
27016;DHT22;14557;0.000;0.000;2023-05-19T11:37:57;22.90;54.10
27016;DHT22;14557;0.000;0.000;2023-05-19T11:40:23;22.90;54.00
27016;DHT22;14557;0.000;0.000;2023-05-19T11:42:49;22.90;53.90
27016;DHT22;14557;0.000;0.000;2023-05-19T11:45:15;23.00;54.10
27016;DHT22;14557;0.000;0.000;2023-05-19T11:47:40;23.10;54.20
27016;DHT22;14557;0.000;0.000;2023-05-19T11:50:06;23.10;54.40
27016;DHT22;14557;0.000;0.000;2023-05-19T11:52:33;23.20;55.70
27016;DHT22;14557;0.000;0.000;2023-05-19T11:54:59;23.20;55.60
27016;DHT22;14557;0.000;0.000;2023-05-19T11:57:25;23.20;58.10
27016;DHT22;14557;0.000;0.000;2023-05-19T11:59:51;23.30;62.40
27016;DHT22;14557;0.000;0.000;2023-05-19T12:04:43;23.40;60.30
27016;DHT22;14557;0.000;0.000;2023-05-19T12:07:09;23.40;63.40
27016;DHT22;14557;0.000;0.000;2023-05-19T12:09:36;23.50;64.30
27016;DHT22;14557;0.000;0.000;2023-05-19T12:12:02;23.50;58.70
27016;DHT22;14557;0.000;0.000;2023-05-19T12:14:28;23.60;60.30
27016;DHT22;14557;0.000;0.000;2023-05-19T12:16:54;23.60;58.00
27016;DHT22;14557;0.000;0.000;2023-05-19T12:19:21;23.60;56.20
27016;DHT22;14557;0.000;0.000;2023-05-19T12:21:48;23.60;55.70
27016;DHT22;14557;0.000;0.000;2023-05-19T12:24:13;23.70;56.80
27016;DHT22;14557;0.000;0.000;2023-05-19T12:26:39;23.70;57.40
27016;DHT22;14557;0.000;0.000;2023-05-19T12:29:05;23.70;59.90
27016;DHT22;14557;0.000;0.000;2023-05-19T12:31:31;23.80;60.70
27016;DHT22;14557;0.000;0.000;2023-05-19T12:33:58;23.80;59.90
27016;DHT22;14557;0.000;0.000;2023-05-19T12:36:23;23.80;62.20
27016;DHT22;14557;0.000;0.000;2023-05-19T12:38:53;23.80;59.50
27016;DHT22;14557;0.000;0.000;2023-05-19T12:41:18;23.90;56.90
27016;DHT22;14557;0.000;0.000;2023-05-19T12:43:44;23.90;56.00
27016;DHT22;14557;0.000;0.000;2023-05-19T12:46:10;24.00;55.30
27016;DHT22;14557;0.000;0.000;2023-05-19T12:48:39;24.00;58.70
27016;DHT22;14557;0.000;0.000;2023-05-19T12:51:05;24.00;57.20
27016;DHT22;14557;0.000;0.000;2023-05-19T12:53:31;24.00;57.30
27016;DHT22;14557;0.000;0.000;2023-05-19T12:55:57;24.10;56.40
27016;DHT22;14557;0.000;0.000;2023-05-19T12:58:22;24.10;55.90
27016;DHT22;14557;0.000;0.000;2023-05-19T13:00:48;24.20;55.10
27016;DHT22;14557;0.000;0.000;2023-05-19T13:03:15;24.20;54.60
27016;DHT22;14557;0.000;0.000;2023-05-19T13:05:41;24.20;54.50
27016;DHT22;14557;0.000;0.000;2023-05-19T13:08:14;24.20;54.30
27016;DHT22;14557;0.000;0.000;2023-05-19T13:10:40;24.20;54.00
27016;DHT22;14557;0.000;0.000;2023-05-19T13:13:06;24.20;54.00
27016;DHT22;14557;0.000;0.000;2023-05-19T13:15:33;24.20;54.00
27016;DHT22;14557;0.000;0.000;2023-05-19T13:18:00;24.20;53.90
27016;DHT22;14557;0.000;0.000;2023-05-19T13:20:26;24.20;54.00
27016;DHT22;14557;0.000;0.000;2023-05-19T13:22:51;24.20;53.80
27016;DHT22;14557;0.000;0.000;2023-05-19T13:25:17;24.20;53.70
27016;DHT22;14557;0.000;0.000;2023-05-19T13:27:43;24.10;53.90
27016;DHT22;14557;0.000;0.000;2023-05-19T13:30:10;24.10;53.80
27016;DHT22;14557;0.000;0.000;2023-05-19T13:32:36;24.20;53.90
27016;DHT22;14557;0.000;0.000;2023-05-19T13:35:02;24.20;53.90
27016;DHT22;14557;0.000;0.000;2023-05-19T13:37:28;24.10;53.90
27016;DHT22;14557;0.000;0.000;2023-05-19T13:39:53;24.10;53.50
27016;DHT22;14557;0.000;0.000;2023-05-19T13:42:19;24.20;53.80
27016;DHT22;14557;0.000;0.000;2023-05-19T13:44:45;24.20;53.60
27016;DHT22;14557;0.000;0.000;2023-05-19T13:47:11;24.20;53.70
27016;DHT22;14557;0.000;0.000;2023-05-19T13:49:36;24.20;53.70
27016;DHT22;14557;0.000;0.000;2023-05-19T13:52:02;24.20;53.50
27016;DHT22;14557;0.000;0.000;2023-05-19T13:54:28;24.20;53.60
27016;DHT22;14557;0.000;0.000;2023-05-19T13:56:54;24.20;53.60
27016;DHT22;14557;0.000;0.000;2023-05-19T13:59:19;24.20;53.50
27016;DHT22;14557;0.000;0.000;2023-05-19T14:01:47;24.20;53.90
27016;DHT22;14557;0.000;0.000;2023-05-19T14:04:16;24.20;53.30
27016;DHT22;14557;0.000;0.000;2023-05-19T14:06:42;24.20;53.30
27016;DHT22;14557;0.000;0.000;2023-05-19T14:09:08;24.20;53.10
27016;DHT22;14557;0.000;0.000;2023-05-19T14:11:34;24.20;53.10
27016;DHT22;14557;0.000;0.000;2023-05-19T14:13:59;24.20;53.20
27016;DHT22;14557;0.000;0.000;2023-05-19T14:16:27;24.20;54.40
27016;DHT22;14557;0.000;0.000;2023-05-19T14:18:53;24.20;54.50
27016;DHT22;14557;0.000;0.000;2023-05-19T14:21:19;24.20;54.10
27016;DHT22;14557;0.000;0.000;2023-05-19T14:23:44;24.20;53.70
27016;DHT22;14557;0.000;0.000;2023-05-19T14:26:10;24.30;53.60
27016;DHT22;14557;0.000;0.000;2023-05-19T14:28:36;24.30;53.40
27016;DHT22;14557;0.000;0.000;2023-05-19T14:31:01;24.30;53.40
27016;DHT22;14557;0.000;0.000;2023-05-19T14:33:27;24.30;53.90
27016;DHT22;14557;0.000;0.000;2023-05-19T14:35:53;24.30;54.30
27016;DHT22;14557;0.000;0.000;2023-05-19T14:38:19;24.30;54.50
27016;DHT22;14557;0.000;0.000;2023-05-19T14:40:45;24.30;54.70
27016;DHT22;14557;0.000;0.000;2023-05-19T14:43:12;24.30;54.80
27016;DHT22;14557;0.000;0.000;2023-05-19T14:45:38;24.30;55.50
27016;DHT22;14557;0.000;0.000;2023-05-19T14:48:06;24.30;55.10
27016;DHT22;14557;0.000;0.000;2023-05-19T14:50:31;24.30;55.20
27016;DHT22;14557;0.000;0.000;2023-05-19T14:52:57;24.40;55.60
27016;DHT22;14557;0.000;0.000;2023-05-19T14:55:23;24.40;55.70
27016;DHT22;14557;0.000;0.000;2023-05-19T14:57:48;24.40;55.80
27016;DHT22;14557;0.000;0.000;2023-05-19T15:00:14;24.40;55.80
27016;DHT22;14557;0.000;0.000;2023-05-19T15:02:40;24.50;56.30
27016;DHT22;14557;0.000;0.000;2023-05-19T15:05:06;24.50;55.80
27016;DHT22;14557;0.000;0.000;2023-05-19T15:07:31;24.50;55.90
27016;DHT22;14557;0.000;0.000;2023-05-19T15:09:57;24.50;55.80
27016;DHT22;14557;0.000;0.000;2023-05-19T15:12:23;24.50;56.00
27016;DHT22;14557;0.000;0.000;2023-05-19T15:14:48;24.50;56.10
27016;DHT22;14557;0.000;0.000;2023-05-19T15:17:14;24.60;55.90
27016;DHT22;14557;0.000;0.000;2023-05-19T15:19:39;24.60;56.10
27016;DHT22;14557;0.000;0.000;2023-05-19T15:22:07;24.60;56.10
27016;DHT22;14557;0.000;0.000;2023-05-19T15:24:33;24.60;56.10
27016;DHT22;14557;0.000;0.000;2023-05-19T15:26:59;24.60;56.20
27016;DHT22;14557;0.000;0.000;2023-05-19T15:29:25;24.60;56.10
27016;DHT22;14557;0.000;0.000;2023-05-19T15:31:51;24.60;56.20
27016;DHT22;14557;0.000;0.000;2023-05-19T15:34:17;24.70;56.20
27016;DHT22;14557;0.000;0.000;2023-05-19T15:36:43;24.70;56.30
27016;DHT22;14557;0.000;0.000;2023-05-19T15:39:08;24.70;56.40
27016;DHT22;14557;0.000;0.000;2023-05-19T15:41:34;24.70;56.40
27016;DHT22;14557;0.000;0.000;2023-05-19T15:44:00;24.70;56.30
27016;DHT22;14557;0.000;0.000;2023-05-19T15:46:27;24.70;56.30
27016;DHT22;14557;0.000;0.000;2023-05-19T15:48:52;24.70;56.30
27016;DHT22;14557;0.000;0.000;2023-05-19T15:51:18;24.70;56.50
27016;DHT22;14557;0.000;0.000;2023-05-19T15:53:43;24.80;56.40
27016;DHT22;14557;0.000;0.000;2023-05-19T15:56:09;24.80;56.40
27016;DHT22;14557;0.000;0.000;2023-05-19T15:58:35;24.80;58.10
27016;DHT22;14557;0.000;0.000;2023-05-19T16:01:00;24.80;56.80
27016;DHT22;14557;0.000;0.000;2023-05-19T16:03:26;24.90;56.70
27016;DHT22;14557;0.000;0.000;2023-05-19T16:05:52;24.90;56.80
27016;DHT22;14557;0.000;0.000;2023-05-19T16:08:18;24.90;56.50
27016;DHT22;14557;0.000;0.000;2023-05-19T16:10:44;25.00;56.70